sensor_id;sensor_type;location;lat;lon;timestamp;temperature;humidity
26037;DHT22;13810;48.376;10.944;2023-05-16T00:00:29;7.50;99.90
26037;DHT22;13810;48.376;10.944;2023-05-16T00:01:04;7.50;99.90
26037;DHT22;13810;48.376;10.944;2023-05-16T00:01:35;7.50;99.90
26037;DHT22;13810;48.376;10.944;2023-05-16T00:02:05;7.50;99.90
26037;DHT22;13810;48.376;10.944;2023-05-16T00:02:36;7.50;99.90
26037;DHT22;13810;48.376;10.944;2023-05-16T00:03:08;7.50;99.90
26037;DHT22;13810;48.376;10.944;2023-05-16T00:03:41;7.50;99.90
26037;DHT22;13810;48.376;10.944;2023-05-16T00:04:12;7.40;99.90
26037;DHT22;13810;48.376;10.944;2023-05-16T00:04:43;7.40;99.90
26037;DHT22;13810;48.376;10.944;2023-05-16T00:05:13;7.40;99.90
26037;DHT22;13810;48.376;10.944;2023-05-16T00:05:44;7.40;99.90
26037;DHT22;13810;48.376;10.944;2023-05-16T00:06:16;7.40;99.90
26037;DHT22;13810;48.376;10.944;2023-05-16T00:06:46;7.40;99.90
26037;DHT22;13810;48.376;10.944;2023-05-16T00:07:17;7.40;99.90
26037;DHT22;13810;48.376;10.944;2023-05-16T00:07:48;7.40;99.90
26037;DHT22;13810;48.376;10.944;2023-05-16T00:08:18;7.40;99.90
26037;DHT22;13810;48.376;10.944;2023-05-16T00:08:49;7.40;99.90
26037;DHT22;13810;48.376;10.944;2023-05-16T00:09:20;7.40;99.90
26037;DHT22;13810;48.376;10.944;2023-05-16T00:09:51;7.40;99.90
26037;DHT22;13810;48.376;10.944;2023-05-16T00:10:21;7.40;99.90
26037;DHT22;13810;48.376;10.944;2023-05-16T00:10:52;7.40;99.90
26037;DHT22;13810;48.376;10.944;2023-05-16T00:11:23;7.40;99.90
26037;DHT22;13810;48.376;10.944;2023-05-16T00:11:53;7.40;99.90
26037;DHT22;13810;48.376;10.944;2023-05-16T00:12:24;7.40;99.90
26037;DHT22;13810;48.376;10.944;2023-05-16T00:12:55;7.40;99.90
26037;DHT22;13810;48.376;10.944;2023-05-16T00:13:28;7.40;99.90
26037;DHT22;13810;48.376;10.944;2023-05-16T00:13:59;7.40;99.90
26037;DHT22;13810;48.376;10.944;2023-05-16T00:14:30;7.40;99.90
26037;DHT22;13810;48.376;10.944;2023-05-16T00:15:02;7.40;99.90
26037;DHT22;13810;48.376;10.944;2023-05-16T00:15:34;7.40;99.90
26037;DHT22;13810;48.376;10.944;2023-05-16T00:16:05;7.40;99.90
26037;DHT22;13810;48.376;10.944;2023-05-16T00:16:36;7.40;99.90
26037;DHT22;13810;48.376;10.944;2023-05-16T00:17:06;7.40;99.90
26037;DHT22;13810;48.376;10.944;2023-05-16T00:17:41;7.40;99.90
26037;DHT22;13810;48.376;10.944;2023-05-16T00:18:16;7.40;99.90
26037;DHT22;13810;48.376;10.944;2023-05-16T00:18:47;7.40;99.90
26037;DHT22;13810;48.376;10.944;2023-05-16T00:19:17;7.40;99.90
26037;DHT22;13810;48.376;10.944;2023-05-16T00:19:48;7.40;99.90
26037;DHT22;13810;48.376;10.944;2023-05-16T00:20:19;7.40;99.90
26037;DHT22;13810;48.376;10.944;2023-05-16T00:20:52;7.40;99.90
26037;DHT22;13810;48.376;10.944;2023-05-16T00:21:24;7.40;99.90
26037;DHT22;13810;48.376;10.944;2023-05-16T00:21:55;7.40;99.90
26037;DHT22;13810;48.376;10.944;2023-05-16T00:22:26;7.40;99.90
26037;DHT22;13810;48.376;10.944;2023-05-16T00:22:56;7.40;99.90
26037;DHT22;13810;48.376;10.944;2023-05-16T00:23:31;7.40;99.90
26037;DHT22;13810;48.376;10.944;2023-05-16T00:24:02;7.40;99.90
26037;DHT22;13810;48.376;10.944;2023-05-16T00:24:33;7.40;99.90
26037;DHT22;13810;48.376;10.944;2023-05-16T00:25:04;7.30;99.90
26037;DHT22;13810;48.376;10.944;2023-05-16T00:25:35;7.30;99.90
26037;DHT22;13810;48.376;10.944;2023-05-16T00:26:06;7.40;99.90
26037;DHT22;13810;48.376;10.944;2023-05-16T00:26:37;7.30;99.90
26037;DHT22;13810;48.376;10.944;2023-05-16T00:27:07;7.30;99.90
26037;DHT22;13810;48.376;10.944;2023-05-16T00:27:38;7.30;99.90
26037;DHT22;13810;48.376;10.944;2023-05-16T00:28:08;7.30;99.90
26037;DHT22;13810;48.376;10.944;2023-05-16T00:28:39;7.30;99.90
26037;DHT22;13810;48.376;10.944;2023-05-16T00:29:10;7.30;99.90
26037;DHT22;13810;48.376;10.944;2023-05-16T00:29:40;7.30;99.90
26037;DHT22;13810;48.376;10.944;2023-05-16T00:30:11;7.30;99.90
26037;DHT22;13810;48.376;10.944;2023-05-16T00:30:42;7.30;99.90
26037;DHT22;13810;48.376;10.944;2023-05-16T00:31:12;7.30;99.90
26037;DHT22;13810;48.376;10.944;2023-05-16T00:31:43;7.20;99.90
26037;DHT22;13810;48.376;10.944;2023-05-16T00:32:14;7.20;99.90
26037;DHT22;13810;48.376;10.944;2023-05-16T00:32:44;7.20;99.90
26037;DHT22;13810;48.376;10.944;2023-05-16T00:33:15;7.20;99.90
26037;DHT22;13810;48.376;10.944;2023-05-16T00:33:46;7.20;99.90
26037;DHT22;13810;48.376;10.944;2023-05-16T00:34:17;7.20;99.90
26037;DHT22;13810;48.376;10.944;2023-05-16T00:34:47;7.10;99.90
26037;DHT22;13810;48.376;10.944;2023-05-16T00:35:18;7.10;99.90
26037;DHT22;13810;48.376;10.944;2023-05-16T00:35:48;7.10;99.90
26037;DHT22;13810;48.376;10.944;2023-05-16T00:36:19;7.10;99.90
26037;DHT22;13810;48.376;10.944;2023-05-16T00:36:52;7.10;99.90
26037;DHT22;13810;48.376;10.944;2023-05-16T00:37:22;7.10;99.90
26037;DHT22;13810;48.376;10.944;2023-05-16T00:37:53;7.10;99.90
26037;DHT22;13810;48.376;10.944;2023-05-16T00:38:24;7.00;99.90
26037;DHT22;13810;48.376;10.944;2023-05-16T00:38:55;7.00;99.90
26037;DHT22;13810;48.376;10.944;2023-05-16T00:39:26;7.10;99.90
26037;DHT22;13810;48.376;10.944;2023-05-16T00:39:56;7.10;99.90
26037;DHT22;13810;48.376;10.944;2023-05-16T00:40:27;7.10;99.90
26037;DHT22;13810;48.376;10.944;2023-05-16T00:40:58;7.00;99.90
26037;DHT22;13810;48.376;10.944;2023-05-16T00:41:29;7.10;99.90
26037;DHT22;13810;48.376;10.944;2023-05-16T00:41:59;7.10;99.90
26037;DHT22;13810;48.376;10.944;2023-05-16T00:42:30;7.10;99.90
26037;DHT22;13810;48.376;10.944;2023-05-16T00:43:01;7.00;99.90
26037;DHT22;13810;48.376;10.944;2023-05-16T00:43:32;7.10;99.90
26037;DHT22;13810;48.376;10.944;2023-05-16T00:44:03;7.00;99.90
26037;DHT22;13810;48.376;10.944;2023-05-16T00:44:33;7.00;99.90
26037;DHT22;13810;48.376;10.944;2023-05-16T00:45:05;7.00;99.90
26037;DHT22;13810;48.376;10.944;2023-05-16T00:45:36;7.00;99.90
26037;DHT22;13810;48.376;10.944;2023-05-16T00:46:06;7.00;99.90
26037;DHT22;13810;48.376;10.944;2023-05-16T00:46:37;7.00;99.90
26037;DHT22;13810;48.376;10.944;2023-05-16T00:47:08;7.00;99.90
26037;DHT22;13810;48.376;10.944;2023-05-16T00:47:39;7.00;99.90
26037;DHT22;13810;48.376;10.944;2023-05-16T00:48:11;7.00;99.90
26037;DHT22;13810;48.376;10.944;2023-05-16T00:48:43;7.00;99.90
26037;DHT22;13810;48.376;10.944;2023-05-16T00:49:14;7.00;99.90
26037;DHT22;13810;48.376;10.944;2023-05-16T00:49:45;7.00;99.90
26037;DHT22;13810;48.376;10.944;2023-05-16T00:50:16;7.00;99.90
26037;DHT22;13810;48.376;10.944;2023-05-16T00:50:47;7.00;99.90
26037;DHT22;13810;48.376;10.944;2023-05-16T00:51:19;7.00;99.90
26037;DHT22;13810;48.376;10.944;2023-05-16T00:51:49;7.00;99.90
26037;DHT22;13810;48.376;10.944;2023-05-16T00:52:21;7.00;99.90
26037;DHT22;13810;48.376;10.944;2023-05-16T00:52:52;7.00;99.90
26037;DHT22;13810;48.376;10.944;2023-05-16T00:53:23;7.00;99.90
26037;DHT22;13810;48.376;10.944;2023-05-16T00:53:55;7.00;99.90
26037;DHT22;13810;48.376;10.944;2023-05-16T00:54:26;7.00;99.90
26037;DHT22;13810;48.376;10.944;2023-05-16T00:54:58;7.00;99.90
26037;DHT22;13810;48.376;10.944;2023-05-16T00:55:29;6.90;99.90
26037;DHT22;13810;48.376;10.944;2023-05-16T00:56:00;6.90;99.90
26037;DHT22;13810;48.376;10.944;2023-05-16T00:56:32;6.90;99.90
26037;DHT22;13810;48.376;10.944;2023-05-16T00:57:04;6.90;99.90
26037;DHT22;13810;48.376;10.944;2023-05-16T00:57:39;6.90;99.90
26037;DHT22;13810;48.376;10.944;2023-05-16T00:58:10;6.90;99.90
26037;DHT22;13810;48.376;10.944;2023-05-16T00:58:42;6.90;99.90
26037;DHT22;13810;48.376;10.944;2023-05-16T00:59:13;6.90;99.90
26037;DHT22;13810;48.376;10.944;2023-05-16T00:59:45;6.90;99.90
26037;DHT22;13810;48.376;10.944;2023-05-16T01:00:16;6.90;99.90
26037;DHT22;13810;48.376;10.944;2023-05-16T01:00:49;6.90;99.90
26037;DHT22;13810;48.376;10.944;2023-05-16T01:01:22;6.90;99.90
26037;DHT22;13810;48.376;10.944;2023-05-16T01:01:54;6.90;99.90
26037;DHT22;13810;48.376;10.944;2023-05-16T01:02:26;6.90;99.90
26037;DHT22;13810;48.376;10.944;2023-05-16T01:02:58;6.90;99.90
26037;DHT22;13810;48.376;10.944;2023-05-16T01:03:29;6.90;99.90
26037;DHT22;13810;48.376;10.944;2023-05-16T01:04:00;6.90;99.90
26037;DHT22;13810;48.376;10.944;2023-05-16T01:04:31;6.90;99.90
26037;DHT22;13810;48.376;10.944;2023-05-16T01:05:03;6.90;99.90
26037;DHT22;13810;48.376;10.944;2023-05-16T01:05:38;6.90;99.90
26037;DHT22;13810;48.376;10.944;2023-05-16T01:06:08;6.90;99.90
26037;DHT22;13810;48.376;10.944;2023-05-16T01:06:40;6.90;99.90
26037;DHT22;13810;48.376;10.944;2023-05-16T01:07:10;6.90;99.90
26037;DHT22;13810;48.376;10.944;2023-05-16T01:07:41;6.90;99.90
26037;DHT22;13810;48.376;10.944;2023-05-16T01:08:12;6.90;99.90
26037;DHT22;13810;48.376;10.944;2023-05-16T01:08:42;6.90;99.90
26037;DHT22;13810;48.376;10.944;2023-05-16T01:09:13;6.90;99.90
26037;DHT22;13810;48.376;10.944;2023-05-16T01:09:44;6.90;99.90
26037;DHT22;13810;48.376;10.944;2023-05-16T01:10:15;6.90;99.90
26037;DHT22;13810;48.376;10.944;2023-05-16T01:11:02;6.90;99.90
26037;DHT22;13810;48.376;10.944;2023-05-16T01:12:43;6.90;99.90
26037;DHT22;13810;48.376;10.944;2023-05-16T01:14:24;6.90;99.90
26037;DHT22;13810;48.376;10.944;2023-05-16T01:15:36;6.90;99.90
26037;DHT22;13810;48.376;10.944;2023-05-16T01:16:15;6.80;99.90
26037;DHT22;13810;48.376;10.944;2023-05-16T01:16:58;6.90;99.90
26037;DHT22;13810;48.376;10.944;2023-05-16T01:20:50;6.80;99.90
26037;DHT22;13810;48.376;10.944;2023-05-16T01:24:39;6.80;99.90
26037;DHT22;13810;48.376;10.944;2023-05-16T01:26:35;6.80;99.90
26037;DHT22;13810;48.376;10.944;2023-05-16T01:27:07;6.80;99.90
26037;DHT22;13810;48.376;10.944;2023-05-16T01:27:38;6.80;99.90
26037;DHT22;13810;48.376;10.944;2023-05-16T01:28:15;6.80;99.90
26037;DHT22;13810;48.376;10.944;2023-05-16T01:28:47;6.80;99.90
26037;DHT22;13810;48.376;10.944;2023-05-16T01:29:18;6.80;99.90
26037;DHT22;13810;48.376;10.944;2023-05-16T01:29:54;6.80;99.90
26037;DHT22;13810;48.376;10.944;2023-05-16T01:30:25;6.80;99.90
26037;DHT22;13810;48.376;10.944;2023-05-16T01:30:56;6.80;99.90
26037;DHT22;13810;48.376;10.944;2023-05-16T01:31:26;6.70;99.90
26037;DHT22;13810;48.376;10.944;2023-05-16T01:31:58;6.70;99.90
26037;DHT22;13810;48.376;10.944;2023-05-16T01:32:28;6.70;99.90
26037;DHT22;13810;48.376;10.944;2023-05-16T01:32:59;6.70;99.90
26037;DHT22;13810;48.376;10.944;2023-05-16T01:33:30;6.70;99.90
26037;DHT22;13810;48.376;10.944;2023-05-16T01:34:01;6.70;99.90
26037;DHT22;13810;48.376;10.944;2023-05-16T01:34:31;6.70;99.90
26037;DHT22;13810;48.376;10.944;2023-05-16T01:35:03;6.60;99.90
26037;DHT22;13810;48.376;10.944;2023-05-16T01:35:45;6.60;99.90
26037;DHT22;13810;48.376;10.944;2023-05-16T01:37:11;6.60;99.90
26037;DHT22;13810;48.376;10.944;2023-05-16T01:38:40;6.70;99.90
26037;DHT22;13810;48.376;10.944;2023-05-16T01:39:22;6.70;99.90
26037;DHT22;13810;48.376;10.944;2023-05-16T01:40:01;6.70;99.90
26037;DHT22;13810;48.376;10.944;2023-05-16T01:41:12;6.70;99.90
26037;DHT22;13810;48.376;10.944;2023-05-16T01:42:20;6.70;99.90
26037;DHT22;13810;48.376;10.944;2023-05-16T01:42:54;6.70;99.90
26037;DHT22;13810;48.376;10.944;2023-05-16T01:43:32;6.70;99.90
26037;DHT22;13810;48.376;10.944;2023-05-16T01:44:09;6.70;99.90
26037;DHT22;13810;48.376;10.944;2023-05-16T01:44:55;6.70;99.90
26037;DHT22;13810;48.376;10.944;2023-05-16T01:45:31;6.70;99.90
26037;DHT22;13810;48.376;10.944;2023-05-16T01:46:11;6.70;99.90
26037;DHT22;13810;48.376;10.944;2023-05-16T01:46:45;6.70;99.90
26037;DHT22;13810;48.376;10.944;2023-05-16T01:47:18;6.70;99.90
26037;DHT22;13810;48.376;10.944;2023-05-16T01:47:57;6.70;99.90
26037;DHT22;13810;48.376;10.944;2023-05-16T01:48:36;6.70;99.90
26037;DHT22;13810;48.376;10.944;2023-05-16T01:49:56;6.70;99.90
26037;DHT22;13810;48.376;10.944;2023-05-16T01:50:29;6.70;99.90
26037;DHT22;13810;48.376;10.944;2023-05-16T01:51:02;6.70;99.90
26037;DHT22;13810;48.376;10.944;2023-05-16T01:51:36;6.70;99.90
26037;DHT22;13810;48.376;10.944;2023-05-16T01:52:12;6.70;99.90
26037;DHT22;13810;48.376;10.944;2023-05-16T01:53:28;6.70;99.90
26037;DHT22;13810;48.376;10.944;2023-05-16T01:54:05;6.70;99.90
26037;DHT22;13810;48.376;10.944;2023-05-16T01:54:43;6.70;99.90
26037;DHT22;13810;48.376;10.944;2023-05-16T01:55:17;6.60;99.90
26037;DHT22;13810;48.376;10.944;2023-05-16T01:55:51;6.60;99.90
26037;DHT22;13810;48.376;10.944;2023-05-16T01:56:22;6.60;99.90
26037;DHT22;13810;48.376;10.944;2023-05-16T01:56:55;6.60;99.90
26037;DHT22;13810;48.376;10.944;2023-05-16T01:57:27;6.60;99.90
26037;DHT22;13810;48.376;10.944;2023-05-16T01:57:58;6.60;99.90
26037;DHT22;13810;48.376;10.944;2023-05-16T01:58:32;6.60;99.90
26037;DHT22;13810;48.376;10.944;2023-05-16T01:59:04;6.60;99.90
26037;DHT22;13810;48.376;10.944;2023-05-16T01:59:36;6.60;99.90
26037;DHT22;13810;48.376;10.944;2023-05-16T02:00:08;6.60;99.90
26037;DHT22;13810;48.376;10.944;2023-05-16T02:00:40;6.60;99.90
26037;DHT22;13810;48.376;10.944;2023-05-16T02:01:12;6.60;99.90
26037;DHT22;13810;48.376;10.944;2023-05-16T02:01:42;6.60;99.90
26037;DHT22;13810;48.376;10.944;2023-05-16T02:02:16;6.60;99.90
26037;DHT22;13810;48.376;10.944;2023-05-16T02:02:47;6.60;99.90
26037;DHT22;13810;48.376;10.944;2023-05-16T02:03:17;6.60;99.90
26037;DHT22;13810;48.376;10.944;2023-05-16T02:03:48;6.60;99.90
26037;DHT22;13810;48.376;10.944;2023-05-16T02:04:18;6.60;99.90
26037;DHT22;13810;48.376;10.944;2023-05-16T02:04:49;6.60;99.90
26037;DHT22;13810;48.376;10.944;2023-05-16T02:05:20;6.60;99.90
26037;DHT22;13810;48.376;10.944;2023-05-16T02:05:51;6.60;99.90
26037;DHT22;13810;48.376;10.944;2023-05-16T02:06:21;6.60;99.90
26037;DHT22;13810;48.376;10.944;2023-05-16T02:06:53;6.60;99.90
26037;DHT22;13810;48.376;10.944;2023-05-16T02:07:24;6.60;99.90
26037;DHT22;13810;48.376;10.944;2023-05-16T02:07:55;6.60;99.90
26037;DHT22;13810;48.376;10.944;2023-05-16T02:08:27;6.70;99.90
26037;DHT22;13810;48.376;10.944;2023-05-16T02:08:57;6.70;99.90
26037;DHT22;13810;48.376;10.944;2023-05-16T02:09:28;6.70;99.90
26037;DHT22;13810;48.376;10.944;2023-05-16T02:09:59;6.70;99.90
26037;DHT22;13810;48.376;10.944;2023-05-16T02:10:29;6.70;99.90
26037;DHT22;13810;48.376;10.944;2023-05-16T02:11:00;6.70;99.90
26037;DHT22;13810;48.376;10.944;2023-05-16T02:11:31;6.60;99.90
26037;DHT22;13810;48.376;10.944;2023-05-16T02:12:02;6.70;99.90
26037;DHT22;13810;48.376;10.944;2023-05-16T02:12:33;6.60;99.90
26037;DHT22;13810;48.376;10.944;2023-05-16T02:13:04;6.60;99.90
26037;DHT22;13810;48.376;10.944;2023-05-16T02:13:35;6.60;99.90
26037;DHT22;13810;48.376;10.944;2023-05-16T02:14:06;6.60;99.90
26037;DHT22;13810;48.376;10.944;2023-05-16T02:14:37;6.60;99.90
26037;DHT22;13810;48.376;10.944;2023-05-16T02:15:08;6.60;99.90
26037;DHT22;13810;48.376;10.944;2023-05-16T02:15:39;6.60;99.90
26037;DHT22;13810;48.376;10.944;2023-05-16T02:16:10;6.60;99.90
26037;DHT22;13810;48.376;10.944;2023-05-16T02:16:41;6.60;99.90
26037;DHT22;13810;48.376;10.944;2023-05-16T02:17:11;6.60;99.90
26037;DHT22;13810;48.376;10.944;2023-05-16T02:17:42;6.60;99.90
26037;DHT22;13810;48.376;10.944;2023-05-16T02:18:13;6.60;99.90
26037;DHT22;13810;48.376;10.944;2023-05-16T02:18:43;6.60;99.90
26037;DHT22;13810;48.376;10.944;2023-05-16T02:19:15;6.60;99.90
26037;DHT22;13810;48.376;10.944;2023-05-16T02:19:45;6.60;99.90
26037;DHT22;13810;48.376;10.944;2023-05-16T02:20:16;6.60;99.90
26037;DHT22;13810;48.376;10.944;2023-05-16T02:20:47;6.60;99.90
26037;DHT22;13810;48.376;10.944;2023-05-16T02:21:17;6.50;99.90
26037;DHT22;13810;48.376;10.944;2023-05-16T02:21:49;6.60;99.90
26037;DHT22;13810;48.376;10.944;2023-05-16T02:22:20;6.50;99.90
26037;DHT22;13810;48.376;10.944;2023-05-16T02:22:50;6.60;99.90
26037;DHT22;13810;48.376;10.944;2023-05-16T02:23:21;6.60;99.90
26037;DHT22;13810;48.376;10.944;2023-05-16T02:23:52;6.50;99.90
26037;DHT22;13810;48.376;10.944;2023-05-16T02:24:22;6.60;99.90
26037;DHT22;13810;48.376;10.944;2023-05-16T02:24:53;6.60;99.90
26037;DHT22;13810;48.376;10.944;2023-05-16T02:25:23;6.60;99.90
26037;DHT22;13810;48.376;10.944;2023-05-16T02:25:54;6.60;99.90
26037;DHT22;13810;48.376;10.944;2023-05-16T02:26:25;6.50;99.90
26037;DHT22;13810;48.376;10.944;2023-05-16T02:26:56;6.50;99.90
26037;DHT22;13810;48.376;10.944;2023-05-16T02:27:26;6.60;99.90
26037;DHT22;13810;48.376;10.944;2023-05-16T02:27:57;6.60;99.90
26037;DHT22;13810;48.376;10.944;2023-05-16T02:28:27;6.50;99.90
26037;DHT22;13810;48.376;10.944;2023-05-16T02:28:58;6.60;99.90
26037;DHT22;13810;48.376;10.944;2023-05-16T02:29:29;6.60;99.90
26037;DHT22;13810;48.376;10.944;2023-05-16T02:30:00;6.60;99.90
26037;DHT22;13810;48.376;10.944;2023-05-16T02:30:31;6.50;99.90
26037;DHT22;13810;48.376;10.944;2023-05-16T02:31:01;6.60;99.90
26037;DHT22;13810;48.376;10.944;2023-05-16T02:31:32;6.50;99.90
26037;DHT22;13810;48.376;10.944;2023-05-16T02:32:04;6.50;99.90
26037;DHT22;13810;48.376;10.944;2023-05-16T02:32:35;6.60;99.90
26037;DHT22;13810;48.376;10.944;2023-05-16T02:33:05;6.50;99.90
26037;DHT22;13810;48.376;10.944;2023-05-16T02:33:36;6.50;99.90
26037;DHT22;13810;48.376;10.944;2023-05-16T02:34:07;6.50;99.90
26037;DHT22;13810;48.376;10.944;2023-05-16T02:34:37;6.50;99.90
26037;DHT22;13810;48.376;10.944;2023-05-16T02:35:08;6.50;99.90
26037;DHT22;13810;48.376;10.944;2023-05-16T02:35:38;6.50;99.90
26037;DHT22;13810;48.376;10.944;2023-05-16T02:36:09;6.50;99.90
26037;DHT22;13810;48.376;10.944;2023-05-16T02:36:40;6.50;99.90
26037;DHT22;13810;48.376;10.944;2023-05-16T02:37:11;6.50;99.90
26037;DHT22;13810;48.376;10.944;2023-05-16T02:37:41;6.50;99.90
26037;DHT22;13810;48.376;10.944;2023-05-16T02:38:12;6.50;99.90
26037;DHT22;13810;48.376;10.944;2023-05-16T02:38:46;6.50;99.90
26037;DHT22;13810;48.376;10.944;2023-05-16T02:39:17;6.50;99.90
26037;DHT22;13810;48.376;10.944;2023-05-16T02:39:48;6.50;99.90
26037;DHT22;13810;48.376;10.944;2023-05-16T02:40:18;6.50;99.90
26037;DHT22;13810;48.376;10.944;2023-05-16T02:40:49;6.50;99.90
26037;DHT22;13810;48.376;10.944;2023-05-16T02:41:20;6.50;99.90
26037;DHT22;13810;48.376;10.944;2023-05-16T02:41:51;6.50;99.90
26037;DHT22;13810;48.376;10.944;2023-05-16T02:42:24;6.50;99.90
26037;DHT22;13810;48.376;10.944;2023-05-16T02:42:55;6.50;99.90
26037;DHT22;13810;48.376;10.944;2023-05-16T02:43:25;6.50;99.90
26037;DHT22;13810;48.376;10.944;2023-05-16T02:43:56;6.50;99.90
26037;DHT22;13810;48.376;10.944;2023-05-16T02:44:26;6.50;99.90
26037;DHT22;13810;48.376;10.944;2023-05-16T02:44:57;6.50;99.90
26037;DHT22;13810;48.376;10.944;2023-05-16T02:45:28;6.60;99.90
26037;DHT22;13810;48.376;10.944;2023-05-16T02:45:58;6.60;99.90
26037;DHT22;13810;48.376;10.944;2023-05-16T02:46:32;6.60;99.90
26037;DHT22;13810;48.376;10.944;2023-05-16T02:47:03;6.50;99.90
26037;DHT22;13810;48.376;10.944;2023-05-16T02:47:33;6.60;99.90
26037;DHT22;13810;48.376;10.944;2023-05-16T02:48:04;6.50;99.90
26037;DHT22;13810;48.376;10.944;2023-05-16T02:48:35;6.50;99.90
26037;DHT22;13810;48.376;10.944;2023-05-16T02:49:05;6.50;99.90
26037;DHT22;13810;48.376;10.944;2023-05-16T02:49:36;6.50;99.90
26037;DHT22;13810;48.376;10.944;2023-05-16T02:50:07;6.50;99.90
26037;DHT22;13810;48.376;10.944;2023-05-16T02:50:38;6.50;99.90
26037;DHT22;13810;48.376;10.944;2023-05-16T02:51:09;6.50;99.90
26037;DHT22;13810;48.376;10.944;2023-05-16T02:51:40;6.50;99.90
26037;DHT22;13810;48.376;10.944;2023-05-16T02:52:10;6.50;99.90
26037;DHT22;13810;48.376;10.944;2023-05-16T02:52:42;6.50;99.90
26037;DHT22;13810;48.376;10.944;2023-05-16T02:53:13;6.60;99.90
26037;DHT22;13810;48.376;10.944;2023-05-16T02:53:43;6.50;99.90
26037;DHT22;13810;48.376;10.944;2023-05-16T02:54:14;6.50;99.90
26037;DHT22;13810;48.376;10.944;2023-05-16T02:54:45;6.50;99.90
26037;DHT22;13810;48.376;10.944;2023-05-16T02:55:15;6.50;99.90
26037;DHT22;13810;48.376;10.944;2023-05-16T02:55:46;6.50;99.90
26037;DHT22;13810;48.376;10.944;2023-05-16T02:56:18;6.50;99.90
26037;DHT22;13810;48.376;10.944;2023-05-16T02:56:49;6.50;99.90
26037;DHT22;13810;48.376;10.944;2023-05-16T02:57:19;6.50;99.90
26037;DHT22;13810;48.376;10.944;2023-05-16T02:57:50;6.50;99.90
26037;DHT22;13810;48.376;10.944;2023-05-16T02:58:21;6.50;99.90
26037;DHT22;13810;48.376;10.944;2023-05-16T02:58:53;6.50;99.90
26037;DHT22;13810;48.376;10.944;2023-05-16T02:59:23;6.50;99.90
26037;DHT22;13810;48.376;10.944;2023-05-16T02:59:54;6.50;99.90
26037;DHT22;13810;48.376;10.944;2023-05-16T03:00:26;6.50;99.90
26037;DHT22;13810;48.376;10.944;2023-05-16T03:00:56;6.50;99.90
26037;DHT22;13810;48.376;10.944;2023-05-16T03:01:27;6.50;99.90
26037;DHT22;13810;48.376;10.944;2023-05-16T03:01:58;6.50;99.90
26037;DHT22;13810;48.376;10.944;2023-05-16T03:02:29;6.50;99.90
26037;DHT22;13810;48.376;10.944;2023-05-16T03:02:59;6.50;99.90
26037;DHT22;13810;48.376;10.944;2023-05-16T03:03:30;6.50;99.90
26037;DHT22;13810;48.376;10.944;2023-05-16T03:04:02;6.50;99.90
26037;DHT22;13810;48.376;10.944;2023-05-16T03:04:33;6.50;99.90
26037;DHT22;13810;48.376;10.944;2023-05-16T03:05:04;6.50;99.90
26037;DHT22;13810;48.376;10.944;2023-05-16T03:05:35;6.50;99.90
26037;DHT22;13810;48.376;10.944;2023-05-16T03:06:06;6.50;99.90
26037;DHT22;13810;48.376;10.944;2023-05-16T03:06:37;6.50;99.90
26037;DHT22;13810;48.376;10.944;2023-05-16T03:07:08;6.50;99.90
26037;DHT22;13810;48.376;10.944;2023-05-16T03:07:39;6.50;99.90
26037;DHT22;13810;48.376;10.944;2023-05-16T03:08:09;6.50;99.90
26037;DHT22;13810;48.376;10.944;2023-05-16T03:08:40;6.50;99.90
26037;DHT22;13810;48.376;10.944;2023-05-16T03:09:11;6.50;99.90
26037;DHT22;13810;48.376;10.944;2023-05-16T03:09:41;6.50;99.90
26037;DHT22;13810;48.376;10.944;2023-05-16T03:10:12;6.50;99.90
26037;DHT22;13810;48.376;10.944;2023-05-16T03:10:43;6.50;99.90
26037;DHT22;13810;48.376;10.944;2023-05-16T03:11:13;6.50;99.90
26037;DHT22;13810;48.376;10.944;2023-05-16T03:11:45;6.50;99.90
26037;DHT22;13810;48.376;10.944;2023-05-16T03:12:16;6.50;99.90
26037;DHT22;13810;48.376;10.944;2023-05-16T03:12:47;6.50;99.90
26037;DHT22;13810;48.376;10.944;2023-05-16T03:13:17;6.50;99.90
26037;DHT22;13810;48.376;10.944;2023-05-16T03:13:48;6.50;99.90
26037;DHT22;13810;48.376;10.944;2023-05-16T03:14:19;6.50;99.90
26037;DHT22;13810;48.376;10.944;2023-05-16T03:14:50;6.50;99.90
26037;DHT22;13810;48.376;10.944;2023-05-16T03:15:21;6.50;99.90
26037;DHT22;13810;48.376;10.944;2023-05-16T03:15:51;6.50;99.90
26037;DHT22;13810;48.376;10.944;2023-05-16T03:16:22;6.50;99.90
26037;DHT22;13810;48.376;10.944;2023-05-16T03:16:53;6.50;99.90
26037;DHT22;13810;48.376;10.944;2023-05-16T03:17:23;6.50;99.90
26037;DHT22;13810;48.376;10.944;2023-05-16T03:17:54;6.50;99.90
26037;DHT22;13810;48.376;10.944;2023-05-16T03:18:25;6.50;99.90
26037;DHT22;13810;48.376;10.944;2023-05-16T03:18:55;6.50;99.90
26037;DHT22;13810;48.376;10.944;2023-05-16T03:19:26;6.60;99.90
26037;DHT22;13810;48.376;10.944;2023-05-16T03:19:57;6.60;99.90
26037;DHT22;13810;48.376;10.944;2023-05-16T03:20:27;6.60;99.90
26037;DHT22;13810;48.376;10.944;2023-05-16T03:20:58;6.60;99.90
26037;DHT22;13810;48.376;10.944;2023-05-16T03:21:29;6.60;99.90
26037;DHT22;13810;48.376;10.944;2023-05-16T03:22:00;6.50;99.90
26037;DHT22;13810;48.376;10.944;2023-05-16T03:22:31;6.60;99.90
26037;DHT22;13810;48.376;10.944;2023-05-16T03:23:02;6.60;99.90
26037;DHT22;13810;48.376;10.944;2023-05-16T03:23:33;6.50;99.90
26037;DHT22;13810;48.376;10.944;2023-05-16T03:24:04;6.50;99.90
26037;DHT22;13810;48.376;10.944;2023-05-16T03:24:34;6.50;99.90
26037;DHT22;13810;48.376;10.944;2023-05-16T03:25:05;6.50;99.90
26037;DHT22;13810;48.376;10.944;2023-05-16T03:25:37;6.50;99.90
26037;DHT22;13810;48.376;10.944;2023-05-16T03:26:08;6.50;99.90
26037;DHT22;13810;48.376;10.944;2023-05-16T03:26:38;6.50;99.90
26037;DHT22;13810;48.376;10.944;2023-05-16T03:27:09;6.50;99.90
26037;DHT22;13810;48.376;10.944;2023-05-16T03:27:40;6.50;99.90
26037;DHT22;13810;48.376;10.944;2023-05-16T03:28:11;6.50;99.90
26037;DHT22;13810;48.376;10.944;2023-05-16T03:28:41;6.50;99.90
26037;DHT22;13810;48.376;10.944;2023-05-16T03:29:12;6.50;99.90
26037;DHT22;13810;48.376;10.944;2023-05-16T03:29:43;6.50;99.90
26037;DHT22;13810;48.376;10.944;2023-05-16T03:30:14;6.50;99.90
26037;DHT22;13810;48.376;10.944;2023-05-16T03:30:45;6.50;99.90
26037;DHT22;13810;48.376;10.944;2023-05-16T03:31:16;6.50;99.90
26037;DHT22;13810;48.376;10.944;2023-05-16T03:31:47;6.50;99.90
26037;DHT22;13810;48.376;10.944;2023-05-16T03:32:17;6.50;99.90
26037;DHT22;13810;48.376;10.944;2023-05-16T03:32:48;6.50;99.90
26037;DHT22;13810;48.376;10.944;2023-05-16T03:33:19;6.50;99.90
26037;DHT22;13810;48.376;10.944;2023-05-16T03:33:49;6.50;99.90
26037;DHT22;13810;48.376;10.944;2023-05-16T03:34:20;6.50;99.90
26037;DHT22;13810;48.376;10.944;2023-05-16T03:34:51;6.50;99.90